sensor_id;sensor_type;location;lat;lon;timestamp;temperature;humidity
48666;DHT22;34452;50.796;4.994;2023-12-20T00:01:25;7.00;99.90
48666;DHT22;34452;50.796;4.994;2023-12-20T00:03:51;7.00;99.90
48666;DHT22;34452;50.796;4.994;2023-12-20T00:06:16;6.90;99.90
48666;DHT22;34452;50.796;4.994;2023-12-20T00:08:42;6.80;99.90
48666;DHT22;34452;50.796;4.994;2023-12-20T00:11:09;6.70;99.90
48666;DHT22;34452;50.796;4.994;2023-12-20T00:13:35;6.70;99.90
48666;DHT22;34452;50.796;4.994;2023-12-20T00:16:01;6.70;99.90
48666;DHT22;34452;50.796;4.994;2023-12-20T00:18:27;6.60;99.90
48666;DHT22;34452;50.796;4.994;2023-12-20T00:20:52;6.60;99.90
48666;DHT22;34452;50.796;4.994;2023-12-20T00:23:18;6.60;99.90
48666;DHT22;34452;50.796;4.994;2023-12-20T00:25:44;6.50;99.90
48666;DHT22;34452;50.796;4.994;2023-12-20T00:28:10;6.50;99.90
48666;DHT22;34452;50.796;4.994;2023-12-20T00:30:36;6.40;99.90
48666;DHT22;34452;50.796;4.994;2023-12-20T00:33:02;6.40;99.90
48666;DHT22;34452;50.796;4.994;2023-12-20T00:35:28;6.40;99.90
48666;DHT22;34452;50.796;4.994;2023-12-20T00:37:53;6.30;99.90
48666;DHT22;34452;50.796;4.994;2023-12-20T00:40:19;6.30;99.90
48666;DHT22;34452;50.796;4.994;2023-12-20T00:42:46;6.20;99.90
48666;DHT22;34452;50.796;4.994;2023-12-20T00:45:12;6.20;99.90
48666;DHT22;34452;50.796;4.994;2023-12-20T00:47:38;6.20;99.90
48666;DHT22;34452;50.796;4.994;2023-12-20T00:50:04;6.10;99.90
48666;DHT22;34452;50.796;4.994;2023-12-20T00:52:30;6.10;99.90
48666;DHT22;34452;50.796;4.994;2023-12-20T00:54:56;6.20;99.90
48666;DHT22;34452;50.796;4.994;2023-12-20T00:57:22;6.20;99.90
48666;DHT22;34452;50.796;4.994;2023-12-20T00:59:47;6.20;99.90
48666;DHT22;34452;50.796;4.994;2023-12-20T01:02:13;6.30;99.90
48666;DHT22;34452;50.796;4.994;2023-12-20T01:04:39;6.30;99.90
48666;DHT22;34452;50.796;4.994;2023-12-20T01:07:05;6.30;99.90
48666;DHT22;34452;50.796;4.994;2023-12-20T01:09:30;6.20;99.90
48666;DHT22;34452;50.796;4.994;2023-12-20T01:11:56;6.20;99.90
48666;DHT22;34452;50.796;4.994;2023-12-20T01:14:22;6.10;99.90
48666;DHT22;34452;50.796;4.994;2023-12-20T01:16:47;6.10;99.90
48666;DHT22;34452;50.796;4.994;2023-12-20T01:19:13;6.00;99.90
48666;DHT22;34452;50.796;4.994;2023-12-20T01:21:40;6.00;99.90
48666;DHT22;34452;50.796;4.994;2023-12-20T01:24:06;5.90;99.90
48666;DHT22;34452;50.796;4.994;2023-12-20T01:26:32;5.90;99.90
48666;DHT22;34452;50.796;4.994;2023-12-20T01:28:57;5.80;99.90
48666;DHT22;34452;50.796;4.994;2023-12-20T01:31:23;5.80;99.90
48666;DHT22;34452;50.796;4.994;2023-12-20T01:33:49;5.70;99.90
48666;DHT22;34452;50.796;4.994;2023-12-20T01:36:15;5.70;99.90
48666;DHT22;34452;50.796;4.994;2023-12-20T01:38:41;5.70;99.90
48666;DHT22;34452;50.796;4.994;2023-12-20T01:41:06;5.60;99.90
48666;DHT22;34452;50.796;4.994;2023-12-20T01:43:32;5.60;99.90
48666;DHT22;34452;50.796;4.994;2023-12-20T01:45:58;5.60;99.90
48666;DHT22;34452;50.796;4.994;2023-12-20T01:48:25;5.50;99.90
48666;DHT22;34452;50.796;4.994;2023-12-20T01:50:51;5.50;99.90
48666;DHT22;34452;50.796;4.994;2023-12-20T01:53:20;5.40;99.90
48666;DHT22;34452;50.796;4.994;2023-12-20T01:55:48;5.40;99.90
48666;DHT22;34452;50.796;4.994;2023-12-20T01:58:15;5.40;99.90
48666;DHT22;34452;50.796;4.994;2023-12-20T02:00:42;5.40;99.90
48666;DHT22;34452;50.796;4.994;2023-12-20T02:03:08;5.40;99.90
48666;DHT22;34452;50.796;4.994;2023-12-20T02:05:35;5.40;99.90
48666;DHT22;34452;50.796;4.994;2023-12-20T02:08:02;5.40;99.90
48666;DHT22;34452;50.796;4.994;2023-12-20T02:10:28;5.40;99.90
48666;DHT22;34452;50.796;4.994;2023-12-20T02:12:54;5.40;99.90
48666;DHT22;34452;50.796;4.994;2023-12-20T02:15:21;5.40;99.90
48666;DHT22;34452;50.796;4.994;2023-12-20T02:17:47;5.30;99.90
48666;DHT22;34452;50.796;4.994;2023-12-20T02:20:14;5.40;99.90
48666;DHT22;34452;50.796;4.994;2023-12-20T02:22:40;5.30;99.90
48666;DHT22;34452;50.796;4.994;2023-12-20T02:25:06;5.30;99.90
48666;DHT22;34452;50.796;4.994;2023-12-20T02:27:31;5.30;99.90
48666;DHT22;34452;50.796;4.994;2023-12-20T02:29:57;5.30;99.90
48666;DHT22;34452;50.796;4.994;2023-12-20T02:32:24;5.30;99.90
48666;DHT22;34452;50.796;4.994;2023-12-20T02:34:55;5.30;99.90
48666;DHT22;34452;50.796;4.994;2023-12-20T02:37:21;5.30;99.90
48666;DHT22;34452;50.796;4.994;2023-12-20T02:39:47;5.30;99.90
48666;DHT22;34452;50.796;4.994;2023-12-20T02:42:12;5.30;99.90
48666;DHT22;34452;50.796;4.994;2023-12-20T02:44:38;5.30;99.90
48666;DHT22;34452;50.796;4.994;2023-12-20T02:47:04;5.20;99.90
48666;DHT22;34452;50.796;4.994;2023-12-20T02:49:30;5.20;99.90
48666;DHT22;34452;50.796;4.994;2023-12-20T02:51:56;5.20;99.90
48666;DHT22;34452;50.796;4.994;2023-12-20T02:54:22;5.20;99.90
48666;DHT22;34452;50.796;4.994;2023-12-20T02:56:48;5.20;99.90
48666;DHT22;34452;50.796;4.994;2023-12-20T02:59:14;5.20;99.90
48666;DHT22;34452;50.796;4.994;2023-12-20T03:01:45;5.20;99.90
48666;DHT22;34452;50.796;4.994;2023-12-20T03:04:11;5.20;99.90
48666;DHT22;34452;50.796;4.994;2023-12-20T03:06:37;5.30;99.90
48666;DHT22;34452;50.796;4.994;2023-12-20T03:09:03;5.30;99.90
48666;DHT22;34452;50.796;4.994;2023-12-20T03:11:29;5.40;99.90
48666;DHT22;34452;50.796;4.994;2023-12-20T03:13:55;5.50;99.90
48666;DHT22;34452;50.796;4.994;2023-12-20T03:16:21;5.50;99.90
48666;DHT22;34452;50.796;4.994;2023-12-20T03:18:47;5.60;99.90
48666;DHT22;34452;50.796;4.994;2023-12-20T03:21:13;5.60;99.90
48666;DHT22;34452;50.796;4.994;2023-12-20T03:23:38;5.70;99.90
48666;DHT22;34452;50.796;4.994;2023-12-20T03:26:07;5.80;99.90
48666;DHT22;34452;50.796;4.994;2023-12-20T03:28:33;5.90;99.90
48666;DHT22;34452;50.796;4.994;2023-12-20T03:30:59;5.90;99.90
48666;DHT22;34452;50.796;4.994;2023-12-20T03:33:25;5.90;99.90
48666;DHT22;34452;50.796;4.994;2023-12-20T03:35:51;5.90;99.90
48666;DHT22;34452;50.796;4.994;2023-12-20T03:38:17;5.80;99.90
48666;DHT22;34452;50.796;4.994;2023-12-20T03:40:42;5.90;99.90
48666;DHT22;34452;50.796;4.994;2023-12-20T03:43:08;5.80;99.90
48666;DHT22;34452;50.796;4.994;2023-12-20T03:45:34;5.80;99.90
48666;DHT22;34452;50.796;4.994;2023-12-20T03:48:00;5.90;99.90
48666;DHT22;34452;50.796;4.994;2023-12-20T03:50:26;5.90;99.90
48666;DHT22;34452;50.796;4.994;2023-12-20T03:52:52;5.90;99.90
48666;DHT22;34452;50.796;4.994;2023-12-20T03:55:18;6.00;99.90
48666;DHT22;34452;50.796;4.994;2023-12-20T03:57:44;5.90;99.90
48666;DHT22;34452;50.796;4.994;2023-12-20T04:00:10;6.00;99.90
48666;DHT22;34452;50.796;4.994;2023-12-20T04:02:36;6.00;99.90
48666;DHT22;34452;50.796;4.994;2023-12-20T04:05:02;6.00;99.90
48666;DHT22;34452;50.796;4.994;2023-12-20T04:07:27;5.90;99.90
48666;DHT22;34452;50.796;4.994;2023-12-20T04:09:53;6.00;99.90
48666;DHT22;34452;50.796;4.994;2023-12-20T04:12:19;6.00;99.90
48666;DHT22;34452;50.796;4.994;2023-12-20T04:14:44;6.00;99.90
48666;DHT22;34452;50.796;4.994;2023-12-20T04:17:10;6.00;99.90
48666;DHT22;34452;50.796;4.994;2023-12-20T04:19:36;5.90;99.90
48666;DHT22;34452;50.796;4.994;2023-12-20T04:22:02;5.90;99.90
48666;DHT22;34452;50.796;4.994;2023-12-20T04:24:27;5.90;99.90
48666;DHT22;34452;50.796;4.994;2023-12-20T04:26:53;5.90;99.90
48666;DHT22;34452;50.796;4.994;2023-12-20T04:29:19;5.90;99.90
48666;DHT22;34452;50.796;4.994;2023-12-20T04:31:44;5.90;99.90
48666;DHT22;34452;50.796;4.994;2023-12-20T04:34:10;5.90;99.90
48666;DHT22;34452;50.796;4.994;2023-12-20T04:36:36;5.90;99.90
48666;DHT22;34452;50.796;4.994;2023-12-20T04:39:02;5.90;99.90
48666;DHT22;34452;50.796;4.994;2023-12-20T04:41:28;5.80;99.90
48666;DHT22;34452;50.796;4.994;2023-12-20T04:43:54;5.80;99.90
48666;DHT22;34452;50.796;4.994;2023-12-20T04:46:19;5.70;99.90
48666;DHT22;34452;50.796;4.994;2023-12-20T04:48:45;5.70;99.90
48666;DHT22;34452;50.796;4.994;2023-12-20T04:51:11;5.70;99.90
48666;DHT22;34452;50.796;4.994;2023-12-20T04:53:36;5.70;99.90
48666;DHT22;34452;50.796;4.994;2023-12-20T04:56:02;5.70;99.90
48666;DHT22;34452;50.796;4.994;2023-12-20T04:58:28;5.70;99.90
48666;DHT22;34452;50.796;4.994;2023-12-20T05:00:54;5.60;99.90
48666;DHT22;34452;50.796;4.994;2023-12-20T05:03:20;5.60;99.90
48666;DHT22;34452;50.796;4.994;2023-12-20T05:05:46;5.60;99.90
48666;DHT22;34452;50.796;4.994;2023-12-20T05:08:11;5.60;99.90
48666;DHT22;34452;50.796;4.994;2023-12-20T05:10:37;5.60;99.90
48666;DHT22;34452;50.796;4.994;2023-12-20T05:13:03;5.60;99.90
48666;DHT22;34452;50.796;4.994;2023-12-20T05:15:29;5.60;99.90
48666;DHT22;34452;50.796;4.994;2023-12-20T05:17:54;5.60;99.90
48666;DHT22;34452;50.796;4.994;2023-12-20T05:20:20;5.60;99.90
48666;DHT22;34452;50.796;4.994;2023-12-20T05:22:46;5.60;99.90
48666;DHT22;34452;50.796;4.994;2023-12-20T05:25:12;5.50;99.90
48666;DHT22;34452;50.796;4.994;2023-12-20T05:27:38;5.50;99.90
48666;DHT22;34452;50.796;4.994;2023-12-20T05:30:04;5.50;99.90
48666;DHT22;34452;50.796;4.994;2023-12-20T05:32:30;5.50;99.90
48666;DHT22;34452;50.796;4.994;2023-12-20T05:34:56;5.50;99.90
48666;DHT22;34452;50.796;4.994;2023-12-20T05:37:22;5.50;99.90
48666;DHT22;34452;50.796;4.994;2023-12-20T05:39:48;5.50;99.90
48666;DHT22;34452;50.796;4.994;2023-12-20T05:42:13;5.40;99.90
48666;DHT22;34452;50.796;4.994;2023-12-20T05:44:39;5.40;99.90
48666;DHT22;34452;50.796;4.994;2023-12-20T05:47:05;5.40;99.90
48666;DHT22;34452;50.796;4.994;2023-12-20T05:49:30;5.40;99.90
48666;DHT22;34452;50.796;4.994;2023-12-20T05:51:57;5.30;99.90
48666;DHT22;34452;50.796;4.994;2023-12-20T05:54:22;5.30;99.90
48666;DHT22;34452;50.796;4.994;2023-12-20T05:56:48;5.30;99.90
48666;DHT22;34452;50.796;4.994;2023-12-20T05:59:14;5.30;99.90
48666;DHT22;34452;50.796;4.994;2023-12-20T06:01:40;5.30;99.90
48666;DHT22;34452;50.796;4.994;2023-12-20T06:04:06;5.30;99.90
48666;DHT22;34452;50.796;4.994;2023-12-20T06:06:31;5.30;99.90
48666;DHT22;34452;50.796;4.994;2023-12-20T06:08:57;5.20;99.90
48666;DHT22;34452;50.796;4.994;2023-12-20T06:11:23;5.30;99.90
48666;DHT22;34452;50.796;4.994;2023-12-20T06:13:49;5.30;99.90
48666;DHT22;34452;50.796;4.994;2023-12-20T06:16:17;5.30;99.90
48666;DHT22;34452;50.796;4.994;2023-12-20T06:18:43;5.30;99.90
48666;DHT22;34452;50.796;4.994;2023-12-20T06:21:09;5.30;99.90
48666;DHT22;34452;50.796;4.994;2023-12-20T06:23:38;5.30;99.90
48666;DHT22;34452;50.796;4.994;2023-12-20T06:26:04;5.30;99.90
48666;DHT22;34452;50.796;4.994;2023-12-20T06:28:30;5.30;99.90
48666;DHT22;34452;50.796;4.994;2023-12-20T06:30:56;5.40;99.90
48666;DHT22;34452;50.796;4.994;2023-12-20T06:33:23;5.40;99.90
48666;DHT22;34452;50.796;4.994;2023-12-20T06:35:49;5.40;99.90
48666;DHT22;34452;50.796;4.994;2023-12-20T06:38:15;5.50;99.90
48666;DHT22;34452;50.796;4.994;2023-12-20T06:40:41;5.50;99.90
48666;DHT22;34452;50.796;4.994;2023-12-20T06:43:08;5.60;99.90
48666;DHT22;34452;50.796;4.994;2023-12-20T06:45:33;5.60;99.90
48666;DHT22;34452;50.796;4.994;2023-12-20T06:48:00;5.60;99.90
48666;DHT22;34452;50.796;4.994;2023-12-20T06:50:25;5.70;99.90
48666;DHT22;34452;50.796;4.994;2023-12-20T06:52:51;5.80;99.90
48666;DHT22;34452;50.796;4.994;2023-12-20T06:55:18;5.80;99.90
48666;DHT22;34452;50.796;4.994;2023-12-20T06:57:43;5.80;99.90
48666;DHT22;34452;50.796;4.994;2023-12-20T07:00:11;5.80;99.90
48666;DHT22;34452;50.796;4.994;2023-12-20T07:02:37;5.80;99.90
48666;DHT22;34452;50.796;4.994;2023-12-20T07:05:03;5.80;99.90
48666;DHT22;34452;50.796;4.994;2023-12-20T07:07:30;5.70;99.90
48666;DHT22;34452;50.796;4.994;2023-12-20T07:09:55;5.60;99.90
48666;DHT22;34452;50.796;4.994;2023-12-20T07:12:21;5.60;99.90
48666;DHT22;34452;50.796;4.994;2023-12-20T07:14:47;5.50;99.90
48666;DHT22;34452;50.796;4.994;2023-12-20T07:17:13;5.50;99.90
48666;DHT22;34452;50.796;4.994;2023-12-20T07:19:41;5.40;99.90
48666;DHT22;34452;50.796;4.994;2023-12-20T07:22:06;5.40;99.90
48666;DHT22;34452;50.796;4.994;2023-12-20T07:24:33;5.40;99.90
48666;DHT22;34452;50.796;4.994;2023-12-20T07:26:59;5.30;99.90
48666;DHT22;34452;50.796;4.994;2023-12-20T07:29:25;5.20;99.90
48666;DHT22;34452;50.796;4.994;2023-12-20T07:31:51;5.10;99.90
48666;DHT22;34452;50.796;4.994;2023-12-20T07:34:17;5.20;99.90
48666;DHT22;34452;50.796;4.994;2023-12-20T07:36:43;5.10;99.90
48666;DHT22;34452;50.796;4.994;2023-12-20T07:39:09;5.20;99.90
48666;DHT22;34452;50.796;4.994;2023-12-20T07:41:36;5.10;99.90
48666;DHT22;34452;50.796;4.994;2023-12-20T07:44:04;5.20;99.90
48666;DHT22;34452;50.796;4.994;2023-12-20T07:46:29;5.10;99.90
48666;DHT22;34452;50.796;4.994;2023-12-20T07:48:56;5.20;99.90
48666;DHT22;34452;50.796;4.994;2023-12-20T07:51:22;5.20;99.90
48666;DHT22;34452;50.796;4.994;2023-12-20T07:53:48;5.30;99.90
48666;DHT22;34452;50.796;4.994;2023-12-20T07:56:18;5.30;99.90
48666;DHT22;34452;50.796;4.994;2023-12-20T07:58:44;5.30;99.90
48666;DHT22;34452;50.796;4.994;2023-12-20T08:01:10;5.30;99.90
48666;DHT22;34452;50.796;4.994;2023-12-20T08:03:36;5.30;99.90
48666;DHT22;34452;50.796;4.994;2023-12-20T08:06:02;5.20;99.90
48666;DHT22;34452;50.796;4.994;2023-12-20T08:08:28;5.20;99.90
48666;DHT22;34452;50.796;4.994;2023-12-20T08:10:54;5.20;99.90
48666;DHT22;34452;50.796;4.994;2023-12-20T08:13:20;5.20;99.90
48666;DHT22;34452;50.796;4.994;2023-12-20T08:15:50;5.20;99.90
48666;DHT22;34452;50.796;4.994;2023-12-20T08:18:16;5.20;99.90
48666;DHT22;34452;50.796;4.994;2023-12-20T08:20:42;5.30;99.90
48666;DHT22;34452;50.796;4.994;2023-12-20T08:23:07;5.30;99.90
48666;DHT22;34452;50.796;4.994;2023-12-20T08:25:33;5.30;99.90
48666;DHT22;34452;50.796;4.994;2023-12-20T08:27:59;5.30;99.90
48666;DHT22;34452;50.796;4.994;2023-12-20T08:30:25;5.30;99.90
48666;DHT22;34452;50.796;4.994;2023-12-20T08:32:50;5.40;99.90
48666;DHT22;34452;50.796;4.994;2023-12-20T08:35:16;5.40;99.90
48666;DHT22;34452;50.796;4.994;2023-12-20T08:37:44;5.40;99.90
48666;DHT22;34452;50.796;4.994;2023-12-20T08:40:10;5.40;99.90
48666;DHT22;34452;50.796;4.994;2023-12-20T08:42:35;5.50;99.90
48666;DHT22;34452;50.796;4.994;2023-12-20T08:45:01;5.40;99.90
48666;DHT22;34452;50.796;4.994;2023-12-20T08:47:29;5.50;99.90
48666;DHT22;34452;50.796;4.994;2023-12-20T08:49:55;5.50;99.90
48666;DHT22;34452;50.796;4.994;2023-12-20T08:52:23;5.60;99.90
48666;DHT22;34452;50.796;4.994;2023-12-20T08:54:50;5.60;99.90
48666;DHT22;34452;50.796;4.994;2023-12-20T08:57:22;5.70;99.90
48666;DHT22;34452;50.796;4.994;2023-12-20T08:59:49;5.80;99.90
48666;DHT22;34452;50.796;4.994;2023-12-20T09:02:16;6.00;99.90
48666;DHT22;34452;50.796;4.994;2023-12-20T09:04:42;6.10;99.90
48666;DHT22;34452;50.796;4.994;2023-12-20T09:07:24;6.20;99.90
48666;DHT22;34452;50.796;4.994;2023-12-20T09:09:50;6.30;99.90
48666;DHT22;34452;50.796;4.994;2023-12-20T09:12:18;6.40;99.90
48666;DHT22;34452;50.796;4.994;2023-12-20T09:14:45;6.50;99.90
48666;DHT22;34452;50.796;4.994;2023-12-20T09:17:12;6.60;99.90
48666;DHT22;34452;50.796;4.994;2023-12-20T09:19:38;6.70;99.90
48666;DHT22;34452;50.796;4.994;2023-12-20T09:22:05;6.70;99.90
48666;DHT22;34452;50.796;4.994;2023-12-20T09:24:31;6.70;99.90
48666;DHT22;34452;50.796;4.994;2023-12-20T09:26:57;6.70;99.90
48666;DHT22;34452;50.796;4.994;2023-12-20T09:29:23;6.70;99.90
48666;DHT22;34452;50.796;4.994;2023-12-20T09:31:50;6.70;99.90
48666;DHT22;34452;50.796;4.994;2023-12-20T09:34:16;6.70;99.90
48666;DHT22;34452;50.796;4.994;2023-12-20T09:36:45;6.80;99.90
48666;DHT22;34452;50.796;4.994;2023-12-20T09:39:19;6.80;99.90
48666;DHT22;34452;50.796;4.994;2023-12-20T09:42:02;6.80;99.90
48666;DHT22;34452;50.796;4.994;2023-12-20T09:44:28;6.80;99.90
48666;DHT22;34452;50.796;4.994;2023-12-20T09:46:55;6.80;99.90
48666;DHT22;34452;50.796;4.994;2023-12-20T09:49:22;6.90;99.90
48666;DHT22;34452;50.796;4.994;2023-12-20T09:51:50;6.90;99.90
48666;DHT22;34452;50.796;4.994;2023-12-20T09:54:20;6.90;99.90
48666;DHT22;34452;50.796;4.994;2023-12-20T09:56:46;7.00;99.90
48666;DHT22;34452;50.796;4.994;2023-12-20T09:59:12;7.00;99.90
48666;DHT22;34452;50.796;4.994;2023-12-20T10:01:39;7.10;99.90
48666;DHT22;34452;50.796;4.994;2023-12-20T10:04:07;7.10;99.90
48666;DHT22;34452;50.796;4.994;2023-12-20T10:06:40;7.20;99.90
48666;DHT22;34452;50.796;4.994;2023-12-20T10:09:06;7.20;99.90
48666;DHT22;34452;50.796;4.994;2023-12-20T10:11:32;7.30;99.90
48666;DHT22;34452;50.796;4.994;2023-12-20T10:14:01;7.30;99.90
48666;DHT22;34452;50.796;4.994;2023-12-20T10:16:27;7.30;99.90
48666;DHT22;34452;50.796;4.994;2023-12-20T10:18:54;7.40;99.90
48666;DHT22;34452;50.796;4.994;2023-12-20T10:21:20;7.40;99.90
48666;DHT22;34452;50.796;4.994;2023-12-20T10:23:46;7.50;99.90
48666;DHT22;34452;50.796;4.994;2023-12-20T10:26:22;7.60;99.90
48666;DHT22;34452;50.796;4.994;2023-12-20T10:29:00;7.70;99.90
48666;DHT22;34452;50.796;4.994;2023-12-20T10:31:27;7.90;99.90
48666;DHT22;34452;50.796;4.994;2023-12-20T10:33:56;8.00;99.90
48666;DHT22;34452;50.796;4.994;2023-12-20T10:36:24;8.00;99.90
48666;DHT22;34452;50.796;4.994;2023-12-20T10:38:52;8.10;99.90
48666;DHT22;34452;50.796;4.994;2023-12-20T10:41:19;8.20;99.90
48666;DHT22;34452;50.796;4.994;2023-12-20T10:43:47;8.20;99.90
48666;DHT22;34452;50.796;4.994;2023-12-20T10:46:13;8.30;99.90
48666;DHT22;34452;50.796;4.994;2023-12-20T10:48:39;8.30;99.90
48666;DHT22;34452;50.796;4.994;2023-12-20T10:51:06;8.30;99.90
48666;DHT22;34452;50.796;4.994;2023-12-20T10:53:33;8.40;99.90
48666;DHT22;34452;50.796;4.994;2023-12-20T10:56:02;8.40;99.90
48666;DHT22;34452;50.796;4.994;2023-12-20T10:58:29;8.40;99.90
48666;DHT22;34452;50.796;4.994;2023-12-20T11:01:01;8.50;99.90
48666;DHT22;34452;50.796;4.994;2023-12-20T11:03:35;8.50;99.90
48666;DHT22;34452;50.796;4.994;2023-12-20T11:06:34;8.50;99.90
48666;DHT22;34452;50.796;4.994;2023-12-20T11:14:50;8.60;99.90
48666;DHT22;34452;50.796;4.994;2023-12-20T11:17:14;8.60;99.90
48666;DHT22;34452;50.796;4.994;2023-12-20T11:22:33;8.60;99.90
48666;DHT22;34452;50.796;4.994;2023-12-20T11:25:08;8.60;99.90
48666;DHT22;34452;50.796;4.994;2023-12-20T11:27:35;8.70;99.90
48666;DHT22;34452;50.796;4.994;2023-12-20T11:30:03;8.70;99.90
48666;DHT22;34452;50.796;4.994;2023-12-20T11:32:34;8.70;99.90
48666;DHT22;34452;50.796;4.994;2023-12-20T11:37:36;8.70;99.90
48666;DHT22;34452;50.796;4.994;2023-12-20T11:40:06;8.70;99.90
48666;DHT22;34452;50.796;4.994;2023-12-20T11:42:45;8.70;99.90
48666;DHT22;34452;50.796;4.994;2023-12-20T11:45:12;8.80;99.90
48666;DHT22;34452;50.796;4.994;2023-12-20T11:47:42;8.70;99.90
48666;DHT22;34452;50.796;4.994;2023-12-20T11:50:09;8.70;99.90
48666;DHT22;34452;50.796;4.994;2023-12-20T11:52:35;8.70;99.90
48666;DHT22;34452;50.796;4.994;2023-12-20T11:55:01;8.70;99.90
48666;DHT22;34452;50.796;4.994;2023-12-20T11:57:26;8.70;99.90
48666;DHT22;34452;50.796;4.994;2023-12-20T11:59:53;8.70;99.90
48666;DHT22;34452;50.796;4.994;2023-12-20T12:02:19;8.70;99.90
48666;DHT22;34452;50.796;4.994;2023-12-20T12:04:45;8.70;99.90
48666;DHT22;34452;50.796;4.994;2023-12-20T12:07:11;8.80;99.90
48666;DHT22;34452;50.796;4.994;2023-12-20T12:09:37;8.70;99.90
48666;DHT22;34452;50.796;4.994;2023-12-20T12:12:03;8.70;99.90
48666;DHT22;34452;50.796;4.994;2023-12-20T12:14:29;8.80;99.90
48666;DHT22;34452;50.796;4.994;2023-12-20T12:16:54;8.80;99.90
48666;DHT22;34452;50.796;4.994;2023-12-20T12:19:24;8.70;99.90
48666;DHT22;34452;50.796;4.994;2023-12-20T12:21:51;8.70;99.90
48666;DHT22;34452;50.796;4.994;2023-12-20T12:24:20;8.70;99.90
48666;DHT22;34452;50.796;4.994;2023-12-20T12:26:52;8.80;99.90
48666;DHT22;34452;50.796;4.994;2023-12-20T12:29:18;8.80;99.90
48666;DHT22;34452;50.796;4.994;2023-12-20T12:31:44;8.90;99.90
48666;DHT22;34452;50.796;4.994;2023-12-20T12:34:09;9.10;99.90
48666;DHT22;34452;50.796;4.994;2023-12-20T12:36:35;9.10;99.90
48666;DHT22;34452;50.796;4.994;2023-12-20T12:39:05;9.20;99.90
48666;DHT22;34452;50.796;4.994;2023-12-20T12:41:31;9.30;99.90
48666;DHT22;34452;50.796;4.994;2023-12-20T12:43:57;9.30;99.90
48666;DHT22;34452;50.796;4.994;2023-12-20T12:46:23;9.30;99.90
48666;DHT22;34452;50.796;4.994;2023-12-20T12:48:48;9.30;99.90
48666;DHT22;34452;50.796;4.994;2023-12-20T12:51:15;9.30;99.90
48666;DHT22;34452;50.796;4.994;2023-12-20T12:53:41;9.30;99.90
48666;DHT22;34452;50.796;4.994;2023-12-20T12:56:08;9.20;99.90
48666;DHT22;34452;50.796;4.994;2023-12-20T12:58:34;9.20;99.90
48666;DHT22;34452;50.796;4.994;2023-12-20T13:01:00;9.30;99.90
48666;DHT22;34452;50.796;4.994;2023-12-20T13:03:25;9.30;99.90
48666;DHT22;34452;50.796;4.994;2023-12-20T13:05:51;9.20;99.90
48666;DHT22;34452;50.796;4.994;2023-12-20T13:08:17;9.20;99.90
48666;DHT22;34452;50.796;4.994;2023-12-20T13:10:43;9.10;99.90
48666;DHT22;34452;50.796;4.994;2023-12-20T13:13:09;9.10;99.90
48666;DHT22;34452;50.796;4.994;2023-12-20T13:15:35;9.10;99.90
48666;DHT22;34452;50.796;4.994;2023-12-20T13:18:00;9.10;99.90
48666;DHT22;34452;50.796;4.994;2023-12-20T13:20:26;9.10;99.90
48666;DHT22;34452;50.796;4.994;2023-12-20T13:22:52;9.00;99.90
48666;DHT22;34452;50.796;4.994;2023-12-20T13:25:18;9.00;99.90
48666;DHT22;34452;50.796;4.994;2023-12-20T13:27:43;9.00;99.90
48666;DHT22;34452;50.796;4.994;2023-12-20T13:30:09;8.90;99.90
48666;DHT22;34452;50.796;4.994;2023-12-20T13:32:35;8.90;99.90
48666;DHT22;34452;50.796;4.994;2023-12-20T13:35:01;8.90;99.90
48666;DHT22;34452;50.796;4.994;2023-12-20T13:37:27;9.00;99.90
48666;DHT22;34452;50.796;4.994;2023-12-20T13:39:52;9.00;99.90
48666;DHT22;34452;50.796;4.994;2023-12-20T13:42:18;8.90;99.90
48666;DHT22;34452;50.796;4.994;2023-12-20T13:44:46;8.90;99.90
48666;DHT22;34452;50.796;4.994;2023-12-20T13:47:12;8.90;99.90
48666;DHT22;34452;50.796;4.994;2023-12-20T13:49:38;8.80;99.90
48666;DHT22;34452;50.796;4.994;2023-12-20T13:52:03;8.80;99.90
48666;DHT22;34452;50.796;4.994;2023-12-20T13:54:30;8.70;99.90
48666;DHT22;34452;50.796;4.994;2023-12-20T13:56:55;8.70;99.90
48666;DHT22;34452;50.796;4.994;2023-12-20T13:59:23;8.70;99.90
48666;DHT22;34452;50.796;4.994;2023-12-20T14:01:48;8.70;99.90
48666;DHT22;34452;50.796;4.994;2023-12-20T14:04:16;8.60;99.90
48666;DHT22;34452;50.796;4.994;2023-12-20T14:06:41;8.70;99.90
48666;DHT22;34452;50.796;4.994;2023-12-20T14:09:08;8.70;99.90
48666;DHT22;34452;50.796;4.994;2023-12-20T14:11:34;8.70;99.90
48666;DHT22;34452;50.796;4.994;2023-12-20T14:13:59;8.70;99.90
48666;DHT22;34452;50.796;4.994;2023-12-20T14:16:27;8.70;99.90
48666;DHT22;34452;50.796;4.994;2023-12-20T14:18:53;8.70;99.90
48666;DHT22;34452;50.796;4.994;2023-12-20T14:21:22;8.70;99.90
48666;DHT22;34452;50.796;4.994;2023-12-20T14:23:49;8.60;99.90
48666;DHT22;34452;50.796;4.994;2023-12-20T14:26:15;8.60;99.90
48666;DHT22;34452;50.796;4.994;2023-12-20T14:28:41;8.60;99.90
48666;DHT22;34452;50.796;4.994;2023-12-20T14:31:07;8.60;99.90
48666;DHT22;34452;50.796;4.994;2023-12-20T14:33:34;8.60;99.90
48666;DHT22;34452;50.796;4.994;2023-12-20T14:36:00;8.60;99.90
48666;DHT22;34452;50.796;4.994;2023-12-20T14:38:25;8.50;99.90
48666;DHT22;34452;50.796;4.994;2023-12-20T14:40:51;8.50;99.90
48666;DHT22;34452;50.796;4.994;2023-12-20T14:43:17;8.60;99.90
48666;DHT22;34452;50.796;4.994;2023-12-20T14:45:43;8.60;99.90
48666;DHT22;34452;50.796;4.994;2023-12-20T14:48:09;8.60;99.90
48666;DHT22;34452;50.796;4.994;2023-12-20T14:50:35;8.60;99.90
48666;DHT22;34452;50.796;4.994;2023-12-20T14:53:02;8.70;99.90
48666;DHT22;34452;50.796;4.994;2023-12-20T14:55:28;8.70;99.90
48666;DHT22;34452;50.796;4.994;2023-12-20T14:57:55;8.80;99.90
48666;DHT22;34452;50.796;4.994;2023-12-20T15:00:21;8.80;99.90
48666;DHT22;34452;50.796;4.994;2023-12-20T15:02:46;8.80;99.90
48666;DHT22;34452;50.796;4.994;2023-12-20T15:05:13;8.80;99.90
48666;DHT22;34452;50.796;4.994;2023-12-20T15:07:40;8.80;99.90
48666;DHT22;34452;50.796;4.994;2023-12-20T15:10:06;8.80;99.90
48666;DHT22;34452;50.796;4.994;2023-12-20T15:12:32;8.80;99.90
48666;DHT22;34452;50.796;4.994;2023-12-20T15:14:59;8.80;99.90
48666;DHT22;34452;50.796;4.994;2023-12-20T15:17:25;8.80;99.90
48666;DHT22;34452;50.796;4.994;2023-12-20T15:19:52;8.80;99.90
48666;DHT22;34452;50.796;4.994;2023-12-20T15:22:18;8.80;99.90
48666;DHT22;34452;50.796;4.994;2023-12-20T15:24:44;8.70;99.90
48666;DHT22;34452;50.796;4.994;2023-12-20T15:27:11;8.70;99.90
48666;DHT22;34452;50.796;4.994;2023-12-20T15:29:37;8.70;99.90
48666;DHT22;34452;50.796;4.994;2023-12-20T15:32:03;8.70;99.90
48666;DHT22;34452;50.796;4.994;2023-12-20T15:34:29;8.80;99.90
48666;DHT22;34452;50.796;4.994;2023-12-20T15:36:55;8.80;99.90
48666;DHT22;34452;50.796;4.994;2023-12-20T15:39:21;8.80;99.90
48666;DHT22;34452;50.796;4.994;2023-12-20T15:41:47;8.70;99.90
48666;DHT22;34452;50.796;4.994;2023-12-20T15:44:15;8.70;99.90
48666;DHT22;34452;50.796;4.994;2023-12-20T15:46:41;8.80;99.90
48666;DHT22;34452;50.796;4.994;2023-12-20T15:49:07;8.80;99.90
48666;DHT22;34452;50.796;4.994;2023-12-20T15:51:33;8.70;99.90